createdAt,value
2023-02-02T00:02:03.651Z,2.55
2023-02-02T00:04:34.011Z,1.85
2023-02-02T00:07:05.758Z,1.58
2023-02-02T00:09:35.575Z,2.72
2023-02-02T00:12:05.281Z,1.85
2023-02-02T00:14:36.676Z,1.63
2023-02-02T00:17:06.036Z,2.17
2023-02-02T00:19:35.527Z,1.77
2023-02-02T00:22:04.611Z,1.42
2023-02-02T00:24:34.059Z,2.40
2023-02-02T00:27:04.998Z,1.77
2023-02-02T00:29:34.172Z,2.15
2023-02-02T00:32:04.795Z,1.85
2023-02-02T00:34:35.317Z,1.48
2023-02-02T00:37:04.854Z,1.52
2023-02-02T00:39:34.003Z,2.50
2023-02-02T00:42:02.988Z,1.73
2023-02-02T00:44:49.878Z,1.95
2023-02-02T00:47:20.837Z,1.73
2023-02-02T00:52:19.630Z,1.58
2023-02-02T00:54:49.050Z,1.63
2023-02-02T00:57:18.315Z,1.60
2023-02-02T00:59:47.642Z,1.55
2023-02-02T01:02:16.872Z,1.40
2023-02-02T01:04:47.993Z,1.55
2023-02-02T01:07:17.600Z,1.23
2023-02-02T01:09:46.633Z,1.90
2023-02-02T01:12:17.636Z,1.52
2023-02-02T01:14:46.726Z,1.63
2023-02-02T01:17:15.719Z,1.63
2023-02-02T01:19:47.781Z,1.83
2023-02-02T01:22:16.886Z,1.67
2023-02-02T01:24:47.596Z,1.50
2023-02-02T01:27:20.745Z,1.60
2023-02-02T01:29:50.193Z,1.92
2023-02-02T01:32:20.244Z,2.15
2023-02-02T01:34:51.358Z,1.20
2023-02-02T01:37:22.247Z,1.52
2023-02-02T01:39:52.327Z,2.88
2023-02-02T01:42:22.891Z,2.25
2023-02-02T01:45:06.094Z,1.05
2023-02-02T01:47:40.235Z,1.58
2023-02-02T01:50:12.241Z,1.25
2023-02-02T01:55:15.266Z,1.52
2023-02-02T01:57:46.488Z,1.33
2023-02-02T02:00:17.572Z,1.48
2023-02-02T02:02:48.294Z,2.10
2023-02-02T02:05:27.030Z,1.73
2023-02-02T02:07:58.245Z,1.58
2023-02-02T02:10:29.197Z,1.50
2023-02-02T02:12:59.509Z,1.20
2023-02-02T02:15:47.839Z,2.08
2023-02-02T02:18:26.277Z,1.15
2023-02-02T02:21:37.266Z,1.30
2023-02-02T02:24:38.948Z,1.52
2023-02-02T02:27:23.261Z,2.42
2023-02-02T02:30:18.123Z,2.70
2023-02-02T02:32:49.731Z,1.83
2023-02-02T02:35:25.303Z,1.98
2023-02-02T02:37:59.306Z,1.80
2023-02-02T02:40:31.446Z,1.40
2023-02-02T02:43:04.351Z,1.67
2023-02-02T02:45:34.338Z,1.30
2023-02-02T02:48:16.915Z,2.40
2023-02-02T02:50:47.270Z,2.13
2023-02-02T02:53:17.769Z,2.00
2023-02-02T02:55:50.028Z,2.67
2023-02-02T03:00:50.485Z,1.70
2023-02-02T03:03:24.901Z,1.17
2023-02-02T03:05:56.904Z,2.63
2023-02-02T03:10:55.947Z,2.15
2023-02-02T03:13:26.346Z,2.08
2023-02-02T03:15:56.052Z,2.22
2023-02-02T03:18:28.411Z,1.42
2023-02-02T03:20:57.401Z,1.80
2023-02-02T03:23:26.332Z,2.05
2023-02-02T03:25:56.134Z,1.50
2023-02-02T03:28:26.079Z,1.95
2023-02-02T03:30:56.584Z,1.30
2023-02-02T03:33:27.039Z,1.25
2023-02-02T03:35:56.059Z,1.45
2023-02-02T03:38:25.070Z,2.33
2023-02-02T03:40:54.054Z,1.77
2023-02-02T03:43:23.201Z,2.45
2023-02-02T03:45:57.277Z,1.40
2023-02-02T03:48:30.469Z,1.50
2023-02-02T03:50:59.848Z,1.85
2023-02-02T03:53:28.940Z,1.88
2023-02-02T03:55:57.930Z,1.63
2023-02-02T03:58:27.166Z,1.05
2023-02-02T04:00:56.600Z,1.60
2023-02-02T04:03:25.509Z,1.40
2023-02-02T04:05:55.837Z,1.20
2023-02-02T04:08:24.919Z,1.23
2023-02-02T04:10:54.065Z,1.40
2023-02-02T04:13:23.055Z,1.80
2023-02-02T04:15:58.556Z,0.85
2023-02-02T04:18:28.004Z,1.40
2023-02-02T04:21:02.078Z,1.27
2023-02-02T04:23:31.611Z,1.30
2023-02-02T04:26:01.272Z,1.58
2023-02-02T04:28:30.613Z,2.08
2023-02-02T04:31:00.183Z,1.58
2023-02-02T04:33:29.529Z,1.40
2023-02-02T04:35:58.516Z,2.00
2023-02-02T04:38:28.908Z,1.77
2023-02-02T04:40:57.856Z,1.35
2023-02-02T04:43:26.826Z,2.15
2023-02-02T04:45:59.393Z,1.73
2023-02-02T04:48:28.533Z,1.67
2023-02-02T04:51:00.998Z,1.17
2023-02-02T04:53:31.672Z,1.50
2023-02-02T04:56:01.088Z,1.20
2023-02-02T04:58:30.105Z,2.03
2023-02-02T05:00:58.970Z,1.58
2023-02-02T05:03:28.320Z,2.13
2023-02-02T05:06:03.028Z,1.25
2023-02-02T05:08:33.495Z,1.48
2023-02-02T05:11:03.349Z,2.22
2023-02-02T05:13:32.788Z,1.95
2023-02-02T05:16:01.904Z,1.70
2023-02-02T05:18:31.698Z,1.90
2023-02-02T05:21:02.003Z,2.35
2023-02-02T05:23:31.278Z,1.95
2023-02-02T05:26:01.785Z,1.77
2023-02-02T05:28:30.687Z,1.30
2023-02-02T05:30:59.660Z,1.60
2023-02-02T05:33:28.857Z,3.17
2023-02-02T05:35:58.024Z,1.10
2023-02-02T05:38:27.137Z,1.38
2023-02-02T05:40:57.220Z,1.45
2023-02-02T05:43:28.350Z,1.55
2023-02-02T05:45:57.402Z,1.20
2023-02-02T05:48:26.585Z,1.40
2023-02-02T05:50:59.319Z,1.60
2023-02-02T05:53:29.654Z,1.77
2023-02-02T05:55:59.229Z,1.58
2023-02-02T05:58:29.733Z,1.42
2023-02-02T06:00:59.701Z,1.38
2023-02-02T06:03:28.781Z,1.67
2023-02-02T06:05:57.793Z,0.98
2023-02-02T06:08:27.017Z,1.35
2023-02-02T06:10:56.319Z,1.30
2023-02-02T06:13:26.426Z,1.27
2023-02-02T06:15:57.254Z,1.90
2023-02-02T06:18:26.837Z,1.40
2023-02-02T06:20:58.357Z,2.17
2023-02-02T06:25:57.608Z,1.23
2023-02-02T06:28:26.741Z,1.52
2023-02-02T06:30:57.606Z,1.13
2023-02-02T06:33:26.947Z,1.23
2023-02-02T06:36:00.754Z,1.45
2023-02-02T06:38:30.158Z,2.20
2023-02-02T06:41:01.318Z,1.75
2023-02-02T06:43:30.618Z,1.20
2023-02-02T06:46:02.477Z,0.93
2023-02-02T06:48:31.504Z,1.48
2023-02-02T06:51:00.678Z,0.98
2023-02-02T06:53:29.749Z,1.15
2023-02-02T06:55:59.492Z,1.23
2023-02-02T06:58:28.974Z,1.20
2023-02-02T07:01:04.253Z,1.55
2023-02-02T07:03:35.077Z,1.60
2023-02-02T07:06:12.537Z,1.60
2023-02-02T07:08:41.622Z,1.30
2023-02-02T07:11:16.133Z,2.05
2023-02-02T07:13:45.844Z,0.80
2023-02-02T07:16:15.124Z,0.80
2023-02-02T07:18:47.569Z,1.10
2023-02-02T07:21:18.783Z,1.00
2023-02-02T07:23:48.842Z,1.42
2023-02-02T07:26:18.688Z,1.20
2023-02-02T07:28:48.073Z,2.35
2023-02-02T07:31:18.764Z,1.35
2023-02-02T07:33:49.759Z,0.90
2023-02-02T07:36:19.691Z,1.48
2023-02-02T07:38:49.288Z,1.33
2023-02-02T07:41:18.300Z,1.90
2023-02-02T07:43:48.905Z,1.45
2023-02-02T07:46:18.954Z,1.98
2023-02-02T07:48:49.610Z,1.33
2023-02-02T07:51:20.637Z,1.55
2023-02-02T07:53:51.239Z,1.45
2023-02-02T07:56:21.158Z,1.27
2023-02-02T07:58:50.756Z,1.30
2023-02-02T08:01:20.560Z,1.23
2023-02-02T08:03:51.480Z,1.77
2023-02-02T08:06:22.403Z,1.30
2023-02-02T08:08:51.795Z,1.73
2023-02-02T08:11:22.000Z,1.13
2023-02-02T08:13:51.711Z,1.85
2023-02-02T08:16:21.050Z,1.25
2023-02-02T08:18:52.022Z,0.88
2023-02-02T08:21:21.316Z,2.13
2023-02-02T08:23:50.736Z,1.92
2023-02-02T08:26:20.970Z,1.40
2023-02-02T08:28:53.371Z,1.17
2023-02-02T08:31:23.519Z,1.50
2023-02-02T08:33:55.720Z,1.00
2023-02-02T08:36:25.425Z,1.50
2023-02-02T08:38:54.368Z,2.25
2023-02-02T08:41:24.259Z,1.75
2023-02-02T08:43:53.461Z,1.77
2023-02-02T08:46:23.280Z,1.08
2023-02-02T08:48:53.795Z,1.38
2023-02-02T08:51:22.805Z,1.40
2023-02-02T08:53:52.072Z,1.65
2023-02-02T08:56:22.095Z,2.40
2023-02-02T08:58:52.122Z,1.27
2023-02-02T09:01:22.212Z,1.38
2023-02-02T09:03:54.967Z,1.02
2023-02-02T09:06:28.196Z,1.02
2023-02-02T09:08:57.582Z,1.13
2023-02-02T09:11:27.877Z,1.63
2023-02-02T09:13:58.554Z,2.08
2023-02-02T09:16:28.570Z,0.80
2023-02-02T09:18:58.153Z,1.20
2023-02-02T09:21:28.520Z,1.00
2023-02-02T09:23:57.710Z,1.48
2023-02-02T09:26:27.693Z,1.38
2023-02-02T09:28:57.833Z,1.35
2023-02-02T09:31:27.660Z,1.00
2023-02-02T09:33:56.832Z,1.23
2023-02-02T09:36:27.013Z,1.13
2023-02-02T09:38:57.553Z,1.00
2023-02-02T09:41:37.693Z,0.68
2023-02-02T09:44:10.442Z,0.80
2023-02-02T09:46:47.166Z,1.08
2023-02-02T09:49:17.534Z,1.02
2023-02-02T09:51:53.213Z,0.93
2023-02-02T09:54:24.736Z,0.90
2023-02-02T09:56:55.929Z,0.55
2023-02-02T09:59:27.677Z,1.17
2023-02-02T10:01:59.338Z,0.93
2023-02-02T10:04:30.505Z,1.02
2023-02-02T10:07:00.599Z,1.27
2023-02-02T10:09:33.142Z,1.20
2023-02-02T10:12:05.249Z,1.10
2023-02-02T10:17:12.946Z,1.00
2023-02-02T10:19:42.748Z,1.00
2023-02-02T10:22:15.068Z,0.95
2023-02-02T10:24:45.855Z,1.00
2023-02-02T10:27:16.740Z,0.90
2023-02-02T10:29:50.161Z,0.90
2023-02-02T10:32:23.725Z,0.93
2023-02-02T10:35:13.220Z,0.93
2023-02-02T10:37:48.032Z,1.10
2023-02-02T10:40:22.683Z,0.85
2023-02-02T10:43:15.179Z,0.95
2023-02-02T10:45:45.563Z,0.65
2023-02-02T10:48:16.368Z,0.82
2023-02-02T10:50:47.538Z,0.60
2023-02-02T10:53:17.265Z,0.80
2023-02-02T10:55:51.754Z,1.10
2023-02-02T10:58:26.291Z,0.90
2023-02-02T11:00:55.909Z,0.63
2023-02-02T11:03:26.776Z,1.00
2023-02-02T11:06:13.769Z,0.82
2023-02-02T11:08:43.777Z,1.00
2023-02-02T11:11:19.055Z,1.23
2023-02-02T11:13:51.226Z,1.00
2023-02-02T11:16:21.506Z,1.17
2023-02-02T11:18:50.906Z,0.80
2023-02-02T11:21:20.728Z,1.08
2023-02-02T11:23:54.132Z,0.70
2023-02-02T11:26:25.877Z,0.73
2023-02-02T11:28:57.600Z,0.70
2023-02-02T11:31:35.265Z,0.88
2023-02-02T11:34:11.974Z,0.88
2023-02-02T11:36:41.330Z,1.63
2023-02-02T11:39:17.484Z,0.98
2023-02-02T11:41:47.945Z,0.60
2023-02-02T11:44:24.024Z,0.60
2023-02-02T11:46:53.835Z,1.10
2023-02-02T11:49:23.943Z,0.57
2023-02-02T11:52:00.348Z,0.88
2023-02-02T11:54:31.614Z,0.70
2023-02-02T11:57:04.147Z,0.93
2023-02-02T11:59:35.208Z,1.05
2023-02-02T12:02:25.273Z,0.90
2023-02-02T12:04:55.481Z,0.82
2023-02-02T12:07:27.833Z,0.73
2023-02-02T12:09:59.856Z,1.00
2023-02-02T12:12:36.692Z,0.80
2023-02-02T12:15:10.780Z,1.85
2023-02-02T12:17:43.014Z,0.60
2023-02-02T12:20:18.697Z,0.90
2023-02-02T12:22:54.120Z,0.77
2023-02-02T12:25:34.705Z,0.73
2023-02-02T12:28:10.485Z,0.80
2023-02-02T12:30:43.753Z,0.80
2023-02-02T12:35:51.805Z,0.47
2023-02-02T12:38:25.960Z,1.05
2023-02-02T12:41:11.200Z,0.90
2023-02-02T12:43:42.870Z,0.82
2023-02-02T12:46:19.686Z,1.13
2023-02-02T12:48:57.924Z,0.80
2023-02-02T12:51:35.868Z,0.80
2023-02-02T12:54:33.365Z,0.85
2023-02-02T12:57:08.122Z,1.67
2023-02-02T12:59:50.121Z,0.90
2023-02-02T13:02:24.608Z,0.80
2023-02-02T13:07:47.701Z,1.40
2023-02-02T13:10:23.910Z,0.70
2023-02-02T13:12:55.820Z,1.38
2023-02-02T13:15:31.209Z,0.55
2023-02-02T13:18:02.521Z,0.75
2023-02-02T13:20:37.566Z,1.35
2023-02-02T13:23:09.972Z,1.00
2023-02-02T13:25:46.866Z,0.80
2023-02-02T13:28:19.935Z,0.80
2023-02-02T13:30:52.601Z,1.73
2023-02-02T13:33:23.917Z,1.08
2023-02-02T13:35:54.539Z,1.07
2023-02-02T13:38:25.198Z,0.75
2023-02-02T13:40:59.909Z,0.60
2023-02-02T13:43:36.178Z,0.85
2023-02-02T13:46:12.233Z,0.50
2023-02-02T13:48:44.818Z,0.60
2023-02-02T13:51:37.369Z,0.50
2023-02-02T13:54:21.204Z,0.57
2023-02-02T13:56:58.946Z,0.88
2023-02-02T13:59:36.785Z,0.30
2023-02-02T14:02:23.636Z,0.50
2023-02-02T14:05:07.474Z,0.60
2023-02-02T14:07:41.830Z,1.08
2023-02-02T14:10:24.690Z,0.55
2023-02-02T14:12:55.359Z,0.40
2023-02-02T14:15:38.416Z,0.60
2023-02-02T14:18:09.463Z,0.40
2023-02-02T14:20:49.757Z,0.60
2023-02-02T14:23:42.396Z,0.60
2023-02-02T14:26:11.876Z,0.60
2023-02-02T14:28:42.739Z,0.40
2023-02-02T14:31:21.476Z,1.00
2023-02-02T14:33:53.141Z,0.60
2023-02-02T14:36:24.637Z,0.68
2023-02-02T14:39:08.720Z,1.05
2023-02-02T14:42:02.474Z,0.50
2023-02-02T14:44:34.781Z,0.60
2023-02-02T14:47:04.127Z,0.35
2023-02-02T14:49:39.183Z,0.60
2023-02-02T14:52:22.509Z,0.60
2023-02-02T14:54:51.522Z,0.80
2023-02-02T14:57:26.460Z,0.70
2023-02-02T14:59:56.436Z,0.55
2023-02-02T15:02:27.746Z,0.60
2023-02-02T15:05:25.061Z,0.50
2023-02-02T15:07:55.779Z,0.50
2023-02-02T15:10:50.251Z,0.90
2023-02-02T15:13:20.476Z,0.50
2023-02-02T15:15:53.440Z,0.60
2023-02-02T15:18:27.474Z,0.43
2023-02-02T15:21:00.699Z,0.75
2023-02-02T15:23:33.881Z,0.60
2023-02-02T15:26:05.488Z,0.50
2023-02-02T15:28:39.288Z,0.57
2023-02-02T15:31:10.902Z,0.40
2023-02-02T15:33:41.266Z,0.50
2023-02-02T15:36:25.572Z,0.73
2023-02-02T15:38:57.442Z,0.40
2023-02-02T15:41:29.229Z,0.32
2023-02-02T15:43:58.968Z,0.50
2023-02-02T15:46:30.118Z,0.47
2023-02-02T15:49:33.758Z,0.32
2023-02-02T15:52:12.265Z,0.47
2023-02-02T15:54:50.775Z,0.45
2023-02-02T15:57:29.966Z,1.05
2023-02-02T16:00:00.074Z,0.80
2023-02-02T16:02:32.532Z,1.00
2023-02-02T16:05:01.821Z,0.60
2023-02-02T16:07:33.939Z,0.40
2023-02-02T16:12:36.980Z,0.88
2023-02-02T16:15:06.442Z,1.00
2023-02-02T16:17:36.576Z,1.15
2023-02-02T16:20:08.971Z,1.02
2023-02-02T16:22:38.757Z,1.00
2023-02-02T16:25:09.770Z,0.73
2023-02-02T16:27:42.661Z,0.55
2023-02-02T16:30:20.652Z,0.82
2023-02-02T16:32:50.442Z,0.63
2023-02-02T16:35:32.229Z,1.02
2023-02-02T16:38:14.547Z,2.05
2023-02-02T16:43:20.800Z,0.80
2023-02-02T16:45:53.833Z,0.80
2023-02-02T16:48:40.128Z,0.60
2023-02-02T16:51:24.881Z,0.82
2023-02-02T16:53:59.028Z,0.70
2023-02-02T16:56:32.461Z,1.15
2023-02-02T16:59:06.523Z,0.52
2023-02-02T17:01:41.127Z,0.50
2023-02-02T17:04:18.125Z,0.65
2023-02-02T17:06:53.248Z,0.60
2023-02-02T17:09:35.308Z,1.40
2023-02-02T17:12:14.219Z,0.57
2023-02-02T17:14:57.518Z,0.77
2023-02-02T17:17:27.351Z,0.73
2023-02-02T17:19:58.124Z,0.85
2023-02-02T17:22:29.627Z,0.85
2023-02-02T17:25:01.885Z,0.60
2023-02-02T17:27:34.034Z,0.82
2023-02-02T17:30:06.569Z,0.70
2023-02-02T17:32:39.325Z,0.75
2023-02-02T17:35:13.076Z,0.63
2023-02-02T17:37:45.313Z,0.60
2023-02-02T17:40:17.360Z,0.40
2023-02-02T17:42:50.797Z,0.57
2023-02-02T17:45:28.354Z,0.32
2023-02-02T17:48:03.073Z,0.82
2023-02-02T17:50:33.500Z,0.60
2023-02-02T17:53:03.550Z,0.40
2023-02-02T17:55:34.530Z,0.40
2023-02-02T17:58:04.384Z,0.60
2023-02-02T18:00:35.166Z,0.40
2023-02-02T18:03:08.798Z,0.73
2023-02-02T18:05:43.091Z,0.30
2023-02-02T18:08:14.185Z,0.40
2023-02-02T18:10:44.063Z,0.70
2023-02-02T18:13:15.722Z,0.73
2023-02-02T18:15:49.584Z,0.70
2023-02-02T18:18:19.092Z,0.50
2023-02-02T18:20:50.531Z,0.60
2023-02-02T18:23:20.350Z,0.50
2023-02-02T18:25:49.956Z,0.38
2023-02-02T18:28:21.541Z,0.40
2023-02-02T18:30:54.113Z,0.30
2023-02-02T18:33:24.131Z,0.50
2023-02-02T18:35:53.128Z,0.40
2023-02-02T18:38:22.591Z,0.32
2023-02-02T18:40:57.949Z,0.47
2023-02-02T18:43:27.620Z,0.38
2023-02-02T18:46:02.802Z,0.60
2023-02-02T18:48:33.014Z,0.60
2023-02-02T18:51:05.725Z,0.40
2023-02-02T18:53:35.107Z,0.73
2023-02-02T18:56:06.078Z,0.40
2023-02-02T18:58:37.534Z,0.50
2023-02-02T19:01:17.291Z,0.47
2023-02-02T19:03:50.837Z,0.40
2023-02-02T19:06:38.092Z,0.50
2023-02-02T19:09:08.688Z,0.50
2023-02-02T19:11:41.026Z,0.40
2023-02-02T19:16:42.647Z,0.60
2023-02-02T19:19:19.175Z,0.50
2023-02-02T19:21:48.753Z,0.65
2023-02-02T19:24:18.095Z,0.60
2023-02-02T19:26:48.827Z,0.40
2023-02-02T19:29:21.998Z,0.55
2023-02-02T19:31:56.205Z,0.85
2023-02-02T19:34:26.115Z,0.50
2023-02-02T19:36:55.671Z,0.65
2023-02-02T19:39:28.572Z,0.65
2023-02-02T19:42:00.536Z,0.82
2023-02-02T19:44:32.167Z,1.13
2023-02-02T19:47:09.071Z,0.43
2023-02-02T19:49:39.015Z,0.45
2023-02-02T19:52:14.149Z,0.40
2023-02-02T19:54:47.742Z,0.60
2023-02-02T19:57:19.244Z,0.50
2023-02-02T19:59:49.972Z,0.60
2023-02-02T20:02:29.611Z,0.47
2023-02-02T20:05:04.313Z,0.55
2023-02-02T20:07:34.166Z,0.60
2023-02-02T20:10:12.569Z,0.57
2023-02-02T20:12:41.893Z,0.45
2023-02-02T20:15:22.391Z,0.75
2023-02-02T20:17:54.442Z,0.60
2023-02-02T20:22:53.033Z,0.57
2023-02-02T20:25:24.087Z,0.40
2023-02-02T20:27:54.381Z,0.47
2023-02-02T20:30:27.090Z,0.50
2023-02-02T20:32:58.841Z,0.40
2023-02-02T20:35:36.569Z,0.50
2023-02-02T20:38:17.604Z,0.40
2023-02-02T20:40:48.154Z,0.70
2023-02-02T20:43:18.064Z,0.40
2023-02-02T20:45:48.212Z,0.30
2023-02-02T20:48:19.245Z,0.40
2023-02-02T20:50:48.477Z,0.50
2023-02-02T20:53:20.421Z,0.50
2023-02-02T20:55:58.271Z,0.30
2023-02-02T20:58:27.480Z,0.70
2023-02-02T21:00:56.776Z,0.47
2023-02-02T21:03:27.889Z,0.40
2023-02-02T21:05:57.128Z,0.75
2023-02-02T21:08:26.388Z,0.63
2023-02-02T21:10:56.123Z,0.57
2023-02-02T21:13:25.303Z,0.60
2023-02-02T21:16:00.529Z,0.50
2023-02-02T21:18:47.164Z,0.60
2023-02-02T21:21:18.856Z,0.55
2023-02-02T21:23:48.888Z,0.50
2023-02-02T21:28:51.976Z,0.50
2023-02-02T21:31:21.667Z,0.30
2023-02-02T21:33:53.404Z,0.50
2023-02-02T21:36:33.239Z,0.65
2023-02-02T21:39:07.452Z,0.50
2023-02-02T21:41:39.397Z,0.50
2023-02-02T21:44:14.335Z,1.55
2023-02-02T21:46:44.559Z,0.40
2023-02-02T21:49:21.111Z,0.50
2023-02-02T21:51:50.668Z,0.43
2023-02-02T21:54:22.352Z,0.65
2023-02-02T21:56:53.014Z,0.75
2023-02-02T21:59:24.052Z,0.60
2023-02-02T22:01:55.356Z,0.50
2023-02-02T22:04:28.702Z,0.60
2023-02-02T22:07:01.481Z,0.88
2023-02-02T22:09:39.150Z,1.27
2023-02-02T22:12:14.197Z,0.50
2023-02-02T22:14:44.359Z,0.35
2023-02-02T22:17:21.814Z,0.95
2023-02-02T22:20:02.377Z,1.00
2023-02-02T22:22:34.920Z,0.90
2023-02-02T22:25:06.382Z,0.75
2023-02-02T22:27:45.033Z,0.65
2023-02-02T22:30:20.246Z,1.08
2023-02-02T22:32:55.907Z,1.50
2023-02-02T22:35:29.060Z,1.00
2023-02-02T22:37:59.137Z,1.10
2023-02-02T22:40:29.007Z,0.90
2023-02-02T22:42:59.512Z,0.70
2023-02-02T22:45:30.133Z,0.60
2023-02-02T22:48:00.269Z,0.70
2023-02-02T22:50:35.378Z,0.30
2023-02-02T22:53:09.192Z,1.17
2023-02-02T22:55:38.575Z,0.93
2023-02-02T22:58:08.216Z,0.43
2023-02-02T23:00:39.325Z,0.50
2023-02-02T23:03:10.160Z,0.40
2023-02-02T23:05:40.757Z,0.50
2023-02-02T23:08:11.225Z,0.55
2023-02-02T23:10:41.695Z,0.55
2023-02-02T23:13:10.796Z,0.50
2023-02-02T23:15:40.243Z,0.60
2023-02-02T23:18:09.368Z,0.73
2023-02-02T23:20:40.188Z,0.38
2023-02-02T23:23:09.649Z,0.60
2023-02-02T23:25:40.242Z,0.50
2023-02-02T23:28:13.343Z,0.55
2023-02-02T23:30:44.564Z,0.52
2023-02-02T23:33:13.768Z,0.50
2023-02-02T23:35:44.738Z,0.45
2023-02-02T23:38:14.322Z,0.30
2023-02-02T23:40:43.643Z,0.68
2023-02-02T23:43:15.168Z,0.70
2023-02-02T23:45:44.455Z,0.50
2023-02-02T23:48:14.521Z,0.50
2023-02-02T23:50:46.802Z,0.40
2023-02-02T23:53:16.966Z,0.40
2023-02-02T23:55:47.502Z,0.38
2023-02-02T23:58:16.667Z,0.55
